»·PEaware :: N22DD L52-L88

N22DD :: L52-L88

FLIGHT INFORMATION

Flight Status: Arrived
Operator: Privately registered:
United States
More flights under this callsign
Pilot: Diego B. (33492)
Aircraft: CESSNA 172 SKYHAWK
(C172)
More flights by this aircraft type
Origin: L52 Oceano Co
United States
Destination: L88 New Cuyama
United States
More flights between these airports :: More routes between these airports
Route:
File this flight plan on PilotEdge
Remarks:
Altitude:
(Current/Filed)
5,500ft
Speed:
(Current/Filed)
110kts
Departed: 22-Feb-21 02:27 PM
Arrived: 22-Feb-21 03:01 PM
Distance/Time
Traveled:
47nm/0:34
Distance/Time
To Go:
Arrived

Flight Plot

Page will automatically refresh every two minutes.


Map Options




Map Legend


Flown Route
Filed Route
Departure Airport
Arrival Airport
Navaid (VOR, NDB)
Fix

Horizontal Profiles

Position Reports

Time Latitude Longitude Heading Altitude Ground
Speed
22-Feb-21 14:09 35.102754 -120.623459 204 19ft 0kts
22-Feb-21 14:11 35.102754 -120.623459 204 19ft 0kts
22-Feb-21 14:11 35.102754 -120.623459 204 19ft 0kts
22-Feb-21 14:12 35.102754 -120.623459 204 19ft 0kts
22-Feb-21 14:13 35.102754 -120.623459 204 19ft 0kts
22-Feb-21 14:15 35.102754 -120.623459 204 19ft 0kts
22-Feb-21 14:16 35.102754 -120.623459 204 19ft 0kts
22-Feb-21 14:16 35.102754 -120.623459 204 19ft 0kts
22-Feb-21 14:17 35.102754 -120.623459 204 19ft 0kts
22-Feb-21 14:18 35.102754 -120.623459 204 19ft 0kts
22-Feb-21 14:19 35.102732 -120.623477 219 19ft 3kts
22-Feb-21 14:20 35.101909 -120.622277 194 18ft 0kts
22-Feb-21 14:21 35.101099 -120.622449 124 20ft 11kts
22-Feb-21 14:22 35.099557 -120.619487 47 17ft 0kts
22-Feb-21 14:23 35.099557 -120.619487 47 17ft 0kts
22-Feb-21 14:24 35.099557 -120.619487 47 17ft 0kts
22-Feb-21 14:25 35.099557 -120.619487 47 17ft 0kts
22-Feb-21 14:26 35.101543 -120.622324 302 18ft 55kts
22-Feb-21 14:27 35.095138 -120.640983 205 649ft 85kts
22-Feb-21 14:28 35.071072 -120.635310 123 1300ft 96kts
22-Feb-21 14:29 35.061958 -120.605803 72 1994ft 98kts
22-Feb-21 14:30 35.069042 -120.573663 72 2618ft 97kts
22-Feb-21 14:31 35.077119 -120.542125 69 3230ft 94kts
22-Feb-21 14:32 35.083401 -120.512642 89 3926ft 87kts
22-Feb-21 14:33 35.078907 -120.483984 100 4615ft 83kts
22-Feb-21 14:34 35.074107 -120.455162 101 5181ft 92kts
22-Feb-21 14:35 35.068259 -120.420862 101 5473ft 116kts
22-Feb-21 14:36 35.061540 -120.381681 101 5479ft 116kts
22-Feb-21 14:37 35.054869 -120.342843 101 5491ft 117kts
22-Feb-21 14:38 35.048156 -120.303825 101 5488ft 117kts
22-Feb-21 14:39 35.041438 -120.264841 101 5489ft 117kts
22-Feb-21 14:40 35.034698 -120.225846 101 5490ft 117kts
22-Feb-21 14:41 35.027925 -120.186751 101 5489ft 117kts
22-Feb-21 14:42 35.021157 -120.147687 101 5491ft 117kts
22-Feb-21 14:43 35.014461 -120.108524 101 5488ft 118kts
22-Feb-21 14:44 35.007870 -120.069539 101 5492ft 117kts
22-Feb-21 14:45 35.001286 -120.030620 101 5488ft 116kts
22-Feb-21 14:46 34.994670 -119.991752 101 5492ft 117kts
22-Feb-21 14:47 34.987974 -119.952389 101 5483ft 119kts
22-Feb-21 14:48 34.981285 -119.913038 101 5477ft 117kts
22-Feb-21 14:49 34.974640 -119.874021 101 5451ft 119kts
22-Feb-21 14:50 34.968270 -119.837515 108 4746ft 104kts
22-Feb-21 14:51 34.948399 -119.811704 134 4051ft 107kts
22-Feb-21 14:52 34.927334 -119.785601 126 3365ft 108kts
22-Feb-21 14:53 34.913817 -119.756591 106 3211ft 99kts
22-Feb-21 14:54 34.905756 -119.723590 104 3197ft 102kts
22-Feb-21 14:55 34.909725 -119.694691 19 3181ft 100kts
22-Feb-21 14:56 34.932273 -119.703006 298 3120ft 102kts
22-Feb-21 14:57 34.948107 -119.726960 18 3071ft 96kts
22-Feb-21 14:58 34.948854 -119.707384 114 2564ft 69kts
22-Feb-21 14:59 34.941302 -119.688830 117 2163ft 47kts
22-Feb-21 15:00 34.938978 -119.683323 296 2194ft 3kts
22-Feb-21 15:01 34.942133 -119.690844 299 2152ft 18kts
22-Feb-21 15:02 34.942962 -119.691151 30 2150ft 0kts
22-Feb-21 15:03 34.943115 -119.691040 32 2150ft 8kts
22-Feb-21 15:04 34.943773 -119.691156 288 2149ft 0kts
22-Feb-21 15:05 34.943773 -119.691156 288 2149ft 0kts
22-Feb-21 15:06 34.943773 -119.691156 288 2149ft 0kts
22-Feb-21 15:07 34.943773 -119.691156 288 2149ft 0kts
22-Feb-21 15:08 34.943773 -119.691156 288 2149ft 0kts
22-Feb-21 15:09 34.943773 -119.691156 288 2149ft 0kts
22-Feb-21 15:10 34.943773 -119.691156 288 2149ft 0kts
22-Feb-21 15:11 34.943773 -119.691156 288 2149ft 0kts
22-Feb-21 15:12 34.943773 -119.691156 288 2149ft 0kts
22-Feb-21 15:13 34.943773 -119.691156 288 2149ft 0kts
22-Feb-21 15:14 34.943773 -119.691156 288 2149ft 0kts

Navigation Log

Ident Type
Flight plan parsing failed, navigation log unavailable